createdAt,value
2017-08-04T00:01:18.656Z,10.90
2017-08-04T00:03:46.623Z,10.37
2017-08-04T00:06:14.254Z,10.67
2017-08-04T00:08:41.880Z,11.37
2017-08-04T00:11:09.573Z,10.60
2017-08-04T00:13:37.203Z,10.87
2017-08-04T00:16:04.981Z,10.40
2017-08-04T00:18:32.667Z,10.57
2017-08-04T00:21:00.291Z,12.70
2017-08-04T00:23:28.233Z,12.77
2017-08-04T00:25:55.978Z,11.57
2017-08-04T00:28:23.997Z,12.17
2017-08-04T00:30:51.831Z,12.43
2017-08-04T00:33:19.577Z,11.83
2017-08-04T00:35:47.543Z,13.70
2017-08-04T00:38:15.462Z,11.40
2017-08-04T00:40:43.536Z,11.67
2017-08-04T00:43:11.593Z,11.23
2017-08-04T00:45:39.336Z,12.07
2017-08-04T00:48:07.340Z,12.40
2017-08-04T00:50:35.195Z,12.23
2017-08-04T00:53:03.189Z,13.50
2017-08-04T00:55:30.864Z,13.13
2017-08-04T00:57:58.535Z,12.03
2017-08-04T01:00:26.439Z,13.77
2017-08-04T01:02:54.135Z,12.87
2017-08-04T01:05:21.970Z,12.37
2017-08-04T01:07:49.716Z,14.40
2017-08-04T01:10:17.682Z,12.73
2017-08-04T01:12:45.602Z,11.93
2017-08-04T01:15:13.225Z,13.47
2017-08-04T01:17:40.932Z,13.13
2017-08-04T01:20:08.541Z,13.73
2017-08-04T01:22:36.157Z,12.37
2017-08-04T01:25:03.833Z,13.80
2017-08-04T01:27:31.479Z,12.90
2017-08-04T01:29:59.108Z,13.10
2017-08-04T01:32:26.772Z,13.20
2017-08-04T01:34:54.401Z,14.17
2017-08-04T01:37:22.020Z,13.97
2017-08-04T01:39:49.892Z,13.20
2017-08-04T01:42:17.633Z,14.63
2017-08-04T01:44:45.277Z,12.97
2017-08-04T01:47:12.987Z,13.10
2017-08-04T01:49:40.596Z,35.77
2017-08-04T01:52:08.213Z,14.60
2017-08-04T01:54:35.892Z,14.00
2017-08-04T01:57:03.524Z,13.67
2017-08-04T01:59:32.060Z,13.13
2017-08-04T02:01:59.748Z,13.30
2017-08-04T02:04:27.377Z,15.27
2017-08-04T02:06:55.098Z,12.90
2017-08-04T02:09:22.772Z,13.83
2017-08-04T02:11:50.391Z,13.13
2017-08-04T02:14:17.990Z,13.70
2017-08-04T02:16:45.657Z,12.33
2017-08-04T02:19:13.272Z,13.40
2017-08-04T02:21:40.923Z,13.00
2017-08-04T02:24:08.628Z,13.47
2017-08-04T02:26:36.256Z,13.90
2017-08-04T02:29:03.880Z,15.07
2017-08-04T02:31:31.606Z,14.93
2017-08-04T02:33:59.225Z,14.80
2017-08-04T02:36:26.851Z,13.40
2017-08-04T02:38:54.543Z,14.40
2017-08-04T02:41:22.172Z,14.30
2017-08-04T02:43:49.786Z,14.47
2017-08-04T02:46:17.529Z,14.80
2017-08-04T02:48:45.160Z,14.67
2017-08-04T02:51:12.769Z,14.87
2017-08-04T02:53:40.443Z,15.87
2017-08-04T02:56:08.104Z,14.00
2017-08-04T02:58:35.731Z,12.77
2017-08-04T03:01:03.416Z,14.77
2017-08-04T03:03:31.032Z,13.30
2017-08-04T03:05:58.672Z,14.07
2017-08-04T03:08:26.354Z,13.63
2017-08-04T03:10:53.976Z,12.93
2017-08-04T03:13:21.604Z,14.10
2017-08-04T03:15:49.278Z,14.50
2017-08-04T03:18:16.890Z,15.90
2017-08-04T03:20:44.501Z,14.30
2017-08-04T03:23:12.185Z,13.13
2017-08-04T03:25:39.816Z,14.20
2017-08-04T03:28:07.445Z,13.63
2017-08-04T03:30:35.189Z,14.40
2017-08-04T03:33:02.802Z,16.20
2017-08-04T03:35:30.432Z,16.37
2017-08-04T03:37:58.097Z,14.30
2017-08-04T03:40:25.734Z,12.30
2017-08-04T03:42:53.355Z,13.13
2017-08-04T03:45:21.042Z,12.53
2017-08-04T03:47:48.728Z,13.03
2017-08-04T03:50:16.352Z,12.03
2017-08-04T03:52:44.025Z,11.30
2017-08-04T03:55:11.639Z,12.87
2017-08-04T03:57:39.469Z,11.00
2017-08-04T04:00:07.423Z,8.97
2017-08-04T04:02:35.025Z,7.90
2017-08-04T04:05:02.648Z,8.17
2017-08-04T04:07:30.305Z,7.13
2017-08-04T04:09:57.910Z,6.93
2017-08-04T04:12:25.536Z,7.17
2017-08-04T04:14:53.207Z,9.70
2017-08-04T04:17:20.824Z,7.60
2017-08-04T04:19:48.430Z,7.50
2017-08-04T04:22:16.136Z,8.07
2017-08-04T04:24:43.753Z,8.20
2017-08-04T04:27:11.392Z,7.90
2017-08-04T04:29:39.107Z,9.13
2017-08-04T04:32:06.752Z,10.57
2017-08-04T04:34:34.507Z,9.00
2017-08-04T04:37:02.171Z,15.30
2017-08-04T04:39:29.797Z,10.80
2017-08-04T04:41:57.416Z,12.20
2017-08-04T04:44:25.089Z,11.87
2017-08-04T04:46:52.704Z,11.57
2017-08-04T04:49:20.321Z,9.90
2017-08-04T04:51:47.996Z,10.43
2017-08-04T04:54:15.623Z,7.60
2017-08-04T04:56:43.241Z,8.77
2017-08-04T04:59:10.921Z,9.53
2017-08-04T05:01:38.545Z,6.80
2017-08-04T05:04:06.161Z,7.87
2017-08-04T05:06:33.840Z,7.10
2017-08-04T05:09:01.467Z,7.90
2017-08-04T05:11:29.086Z,8.23
2017-08-04T05:13:56.749Z,7.00
2017-08-04T05:16:24.354Z,8.23
2017-08-04T05:18:51.957Z,8.20
2017-08-04T05:21:19.632Z,6.53
2017-08-04T05:23:47.251Z,7.37
2017-08-04T05:26:14.852Z,8.93
2017-08-04T05:28:42.541Z,8.07
2017-08-04T05:31:10.172Z,6.80
2017-08-04T05:33:37.811Z,7.00
2017-08-04T05:36:05.589Z,5.67
2017-08-04T05:38:33.274Z,4.47
2017-08-04T05:41:00.931Z,6.13
2017-08-04T05:43:28.597Z,5.40
2017-08-04T05:45:56.216Z,6.20
2017-08-04T05:48:23.821Z,6.17
2017-08-04T05:50:51.638Z,5.80
2017-08-04T05:53:19.267Z,5.10
2017-08-04T05:55:46.894Z,4.90
2017-08-04T05:58:14.577Z,9.43
2017-08-04T06:00:42.212Z,6.13
2017-08-04T06:03:09.885Z,6.63
2017-08-04T06:05:37.568Z,6.83
2017-08-04T06:08:05.185Z,5.40
2017-08-04T06:10:32.795Z,5.00
2017-08-04T06:13:00.477Z,5.77
2017-08-04T06:15:28.104Z,5.60
2017-08-04T06:17:55.720Z,4.87
2017-08-04T06:20:23.366Z,4.00
2017-08-04T06:22:50.994Z,6.63
2017-08-04T06:25:18.605Z,6.63
2017-08-04T06:27:46.279Z,4.70
2017-08-04T06:30:13.886Z,9.43
2017-08-04T06:32:41.514Z,8.07
2017-08-04T06:35:09.186Z,4.30
2017-08-04T06:37:36.787Z,4.40
2017-08-04T06:40:04.421Z,4.60
2017-08-04T06:42:32.087Z,5.30
2017-08-04T06:44:59.716Z,4.35
2017-08-04T06:47:27.342Z,4.00
2017-08-04T06:50:06.730Z,4.03
2017-08-04T06:52:46.233Z,4.75
2017-08-04T06:55:35.743Z,4.15
2017-08-04T06:58:03.377Z,5.25
2017-08-04T07:00:30.996Z,4.68
2017-08-04T07:02:58.669Z,4.37
2017-08-04T07:05:26.277Z,4.37
2017-08-04T07:07:53.896Z,3.78
2017-08-04T07:10:21.567Z,3.85
2017-08-04T07:12:49.174Z,4.85
2017-08-04T07:15:16.773Z,3.60
2017-08-04T07:17:44.439Z,4.00
2017-08-04T07:20:12.056Z,5.93
2017-08-04T07:22:39.662Z,4.45
2017-08-04T07:25:07.329Z,4.03
2017-08-04T07:27:34.960Z,4.43
2017-08-04T07:30:02.594Z,3.95
2017-08-04T07:32:30.260Z,3.70
2017-08-04T07:34:57.873Z,5.03
2017-08-04T07:37:25.483Z,5.28
2017-08-04T07:39:53.167Z,3.60
2017-08-04T07:42:20.776Z,3.72
2017-08-04T07:44:48.401Z,4.55
2017-08-04T07:47:16.102Z,4.40
2017-08-04T07:49:43.755Z,4.90
2017-08-04T07:52:11.372Z,4.72
2017-08-04T07:54:39.140Z,3.85
2017-08-04T07:57:06.769Z,3.80
2017-08-04T07:59:34.390Z,5.95
2017-08-04T08:02:02.045Z,3.12
2017-08-04T08:04:29.715Z,4.00
2017-08-04T08:06:57.334Z,4.60
2017-08-04T08:09:25.008Z,4.47
2017-08-04T08:11:52.619Z,3.33
2017-08-04T08:14:20.239Z,3.35
2017-08-04T08:16:47.882Z,3.85
2017-08-04T08:19:15.489Z,3.92
2017-08-04T08:21:43.093Z,3.72
2017-08-04T08:24:10.763Z,3.97
2017-08-04T08:26:38.363Z,4.28
2017-08-04T08:29:05.968Z,3.97
2017-08-04T08:31:33.646Z,3.60
2017-08-04T08:34:01.268Z,3.00
2017-08-04T08:36:28.885Z,3.20
2017-08-04T08:38:56.575Z,3.67
2017-08-04T08:41:24.253Z,3.87
2017-08-04T08:43:51.881Z,3.90
2017-08-04T08:46:19.557Z,3.40
2017-08-04T08:48:47.153Z,3.12
2017-08-04T08:51:14.765Z,3.83
2017-08-04T08:53:42.422Z,3.10
2017-08-04T08:56:10.088Z,3.15
2017-08-04T08:58:37.690Z,3.30
2017-08-04T09:01:05.349Z,4.15
2017-08-04T09:03:32.937Z,3.03
2017-08-04T09:06:00.524Z,3.85
2017-08-04T09:08:28.339Z,3.28
2017-08-04T09:10:55.976Z,4.35
2017-08-04T09:13:23.595Z,2.97
2017-08-04T09:15:51.268Z,3.83
2017-08-04T09:18:18.892Z,3.35
2017-08-04T09:20:46.516Z,3.67
2017-08-04T09:23:14.186Z,3.05
2017-08-04T09:25:41.805Z,3.40
2017-08-04T09:28:09.428Z,3.55
2017-08-04T09:30:37.084Z,3.62
2017-08-04T09:33:04.778Z,3.58
2017-08-04T09:35:32.399Z,3.40
2017-08-04T09:38:00.088Z,4.28
2017-08-04T09:40:27.702Z,3.60
2017-08-04T09:42:55.323Z,2.87
2017-08-04T09:45:23.681Z,3.17
2017-08-04T09:47:51.361Z,2.90
2017-08-04T09:50:18.969Z,3.45
2017-08-04T09:52:46.643Z,4.00
2017-08-04T09:55:14.259Z,2.70
2017-08-04T09:57:42.144Z,3.12
2017-08-04T10:00:09.828Z,2.78
2017-08-04T10:02:37.434Z,3.05
2017-08-04T10:05:05.034Z,3.28
2017-08-04T10:07:32.720Z,3.65
2017-08-04T10:10:00.334Z,3.12
2017-08-04T10:12:27.948Z,3.15
2017-08-04T10:14:55.637Z,3.20
2017-08-04T10:17:23.262Z,3.47
2017-08-04T10:19:50.877Z,3.65
2017-08-04T10:22:18.585Z,3.40
2017-08-04T10:24:46.190Z,2.65
2017-08-04T10:27:15.921Z,2.95
2017-08-04T10:29:43.799Z,2.87
2017-08-04T10:32:11.450Z,2.55
2017-08-04T10:34:39.059Z,3.85
2017-08-04T10:37:06.721Z,3.72
2017-08-04T10:39:34.329Z,2.75
2017-08-04T10:42:01.941Z,2.80
2017-08-04T10:44:29.610Z,4.07
2017-08-04T10:46:57.209Z,4.47
2017-08-04T10:49:24.806Z,3.30
2017-08-04T10:51:52.476Z,3.30
2017-08-04T10:54:20.091Z,3.62
2017-08-04T10:56:47.697Z,4.05
2017-08-04T10:59:15.602Z,3.40
2017-08-04T11:01:43.232Z,3.62
2017-08-04T11:04:10.835Z,4.15
2017-08-04T11:06:38.509Z,4.20
2017-08-04T11:09:06.168Z,3.95
2017-08-04T11:11:33.779Z,4.20
2017-08-04T11:14:01.452Z,3.20
2017-08-04T11:16:29.070Z,3.55
2017-08-04T11:18:56.674Z,3.40
2017-08-04T11:21:24.615Z,3.03
2017-08-04T11:23:52.229Z,4.20
2017-08-04T11:26:19.846Z,3.40
2017-08-04T11:28:47.554Z,3.90
2017-08-04T11:31:15.166Z,3.37
2017-08-04T11:33:42.775Z,2.97
2017-08-04T11:36:10.451Z,3.60
2017-08-04T11:38:38.060Z,3.28
2017-08-04T11:41:05.679Z,2.95
2017-08-04T11:43:33.356Z,3.15
2017-08-04T11:46:00.980Z,2.83
2017-08-04T11:48:28.598Z,3.30
2017-08-04T11:50:56.268Z,4.18
2017-08-04T11:53:23.884Z,3.12
2017-08-04T11:55:51.515Z,3.20
2017-08-04T11:58:19.201Z,3.70
2017-08-04T12:00:46.863Z,3.25
2017-08-04T12:03:14.479Z,2.78
2017-08-04T12:05:42.161Z,4.32
2017-08-04T12:08:09.896Z,2.87
2017-08-04T12:10:37.868Z,2.90
2017-08-04T12:13:05.551Z,3.45
2017-08-04T12:15:33.165Z,2.95
2017-08-04T12:18:00.762Z,3.53
2017-08-04T12:20:28.432Z,3.25
2017-08-04T12:22:56.151Z,3.00
2017-08-04T12:25:23.768Z,2.70
2017-08-04T12:27:51.426Z,2.80
2017-08-04T12:30:19.060Z,3.53
2017-08-04T12:32:46.692Z,3.50
2017-08-04T12:35:14.359Z,3.72
2017-08-04T12:37:41.981Z,3.00
2017-08-04T12:40:09.601Z,2.80
2017-08-04T12:42:37.272Z,2.70
2017-08-04T12:45:04.879Z,3.15
2017-08-04T12:47:32.486Z,3.65
2017-08-04T12:50:00.169Z,3.17
2017-08-04T12:52:27.784Z,3.75
2017-08-04T12:54:55.383Z,3.20
2017-08-04T12:57:23.056Z,3.62
2017-08-04T12:59:50.849Z,3.10
2017-08-04T13:02:18.537Z,3.55
2017-08-04T13:04:46.203Z,3.45
2017-08-04T13:07:13.801Z,5.28
2017-08-04T13:09:41.397Z,3.08
2017-08-04T13:12:09.045Z,4.57
2017-08-04T13:14:36.663Z,4.32
2017-08-04T13:17:04.292Z,4.05
2017-08-04T13:19:31.953Z,3.80
2017-08-04T13:21:59.559Z,3.90
2017-08-04T13:24:27.172Z,3.87
2017-08-04T13:26:54.832Z,4.25
2017-08-04T13:29:22.426Z,4.90
2017-08-04T13:31:50.006Z,4.20
2017-08-04T13:34:17.652Z,4.28
2017-08-04T13:36:45.264Z,3.70
2017-08-04T13:39:12.871Z,4.10
2017-08-04T13:41:40.534Z,4.07
2017-08-04T13:44:08.248Z,5.93
2017-08-04T13:46:35.867Z,5.37
2017-08-04T13:49:03.517Z,4.73
2017-08-04T13:51:31.255Z,5.20
2017-08-04T13:53:59.220Z,4.10
2017-08-04T13:56:26.919Z,4.47
2017-08-04T13:58:54.525Z,4.10
2017-08-04T14:01:22.115Z,4.30
2017-08-04T14:03:49.905Z,3.57
2017-08-04T14:06:17.506Z,4.17
2017-08-04T14:08:45.445Z,5.00
2017-08-04T14:11:13.105Z,4.30
2017-08-04T14:13:40.769Z,3.70
2017-08-04T14:16:08.362Z,4.87
2017-08-04T14:18:36.021Z,4.10
2017-08-04T14:21:03.861Z,3.37
2017-08-04T14:23:31.723Z,3.73
2017-08-04T14:25:59.486Z,4.57
2017-08-04T14:28:27.358Z,4.30
2017-08-04T14:30:55.200Z,4.93
2017-08-04T14:33:24.791Z,4.78
2017-08-04T14:35:52.395Z,4.47
2017-08-04T14:38:19.996Z,4.40
2017-08-04T14:40:47.710Z,3.70
2017-08-04T14:43:15.327Z,3.87
2017-08-04T14:45:42.943Z,4.00
2017-08-04T14:48:10.632Z,4.80
2017-08-04T14:50:38.236Z,3.57
2017-08-04T14:53:05.845Z,4.00
2017-08-04T14:55:33.511Z,4.53
2017-08-04T14:58:01.115Z,4.63
2017-08-04T15:00:29.010Z,4.37
2017-08-04T15:02:56.867Z,3.93
2017-08-04T15:05:24.796Z,4.47
2017-08-04T15:07:52.660Z,3.83
2017-08-04T15:10:20.630Z,3.67
2017-08-04T15:12:48.449Z,4.30
2017-08-04T15:15:16.312Z,4.40
2017-08-04T15:17:44.288Z,3.57
2017-08-04T15:20:12.123Z,4.40
2017-08-04T15:22:40.019Z,5.43
2017-08-04T15:25:07.881Z,3.87
2017-08-04T15:27:35.602Z,5.50
2017-08-04T15:30:03.439Z,4.80
2017-08-04T15:32:31.463Z,4.70
2017-08-04T15:34:59.211Z,3.70
2017-08-04T15:37:27.001Z,3.60
2017-08-04T15:39:54.675Z,3.70
2017-08-04T15:42:22.504Z,4.00
2017-08-04T15:44:50.209Z,3.83
2017-08-04T15:47:18.298Z,4.10
2017-08-04T15:49:45.906Z,5.63
2017-08-04T15:52:13.513Z,4.63
2017-08-04T15:54:41.159Z,4.70
2017-08-04T15:57:08.747Z,4.10
2017-08-04T15:59:36.366Z,4.97
2017-08-04T16:02:04.024Z,5.97
2017-08-04T16:04:31.619Z,5.00
2017-08-04T16:06:59.781Z,8.40
2017-08-04T16:09:27.854Z,5.13
2017-08-04T16:11:55.461Z,4.33
2017-08-04T16:14:23.080Z,7.90
2017-08-04T16:16:50.738Z,10.77
2017-08-04T16:19:18.346Z,6.50
2017-08-04T16:21:45.962Z,6.83
2017-08-04T16:24:13.621Z,9.63
2017-08-04T16:26:41.217Z,7.60
2017-08-04T16:29:08.877Z,7.50
2017-08-04T16:31:36.525Z,8.20
2017-08-04T16:34:04.130Z,5.87
2017-08-04T16:36:31.748Z,6.27
2017-08-04T16:38:59.412Z,7.60
2017-08-04T16:41:27.011Z,7.67
2017-08-04T16:43:54.612Z,6.63
2017-08-04T16:46:22.281Z,8.50
2017-08-04T16:48:51.634Z,6.87
2017-08-04T16:51:19.437Z,7.00
2017-08-04T16:53:47.100Z,7.40
2017-08-04T16:56:14.720Z,8.77
2017-08-04T16:58:42.332Z,8.90
2017-08-04T17:01:10.003Z,7.90
2017-08-04T17:03:37.596Z,8.57
2017-08-04T17:06:05.203Z,7.43
2017-08-04T17:08:32.869Z,6.20
2017-08-04T17:11:00.472Z,8.97
2017-08-04T17:13:28.137Z,10.40
2017-08-04T17:15:55.829Z,10.20
2017-08-04T17:18:23.465Z,8.70
2017-08-04T17:20:51.084Z,8.30
2017-08-04T17:23:18.741Z,7.20
2017-08-04T17:25:46.335Z,9.70
2017-08-04T17:28:13.944Z,7.90
2017-08-04T17:30:41.595Z,6.93
2017-08-04T17:33:09.187Z,8.93
2017-08-04T17:35:36.806Z,8.50
2017-08-04T17:38:04.470Z,7.10
2017-08-04T17:40:32.069Z,11.00
2017-08-04T17:42:59.683Z,10.03
2017-08-04T17:45:27.575Z,8.57
2017-08-04T17:47:55.182Z,10.27
2017-08-04T17:50:22.784Z,46.50
2017-08-04T17:52:50.437Z,24.83
2017-08-04T17:55:18.037Z,24.83
2017-08-04T17:57:45.633Z,20.33
2017-08-04T18:00:13.297Z,24.83
2017-08-04T18:02:52.666Z,13.57
2017-08-04T18:05:20.333Z,16.10
2017-08-04T18:07:47.935Z,16.60
2017-08-04T18:10:16.462Z,47.10
2017-08-04T18:12:44.196Z,38.53
2017-08-04T18:15:11.816Z,43.60
2017-08-04T18:17:39.447Z,32.50
2017-08-04T18:20:07.102Z,16.70
2017-08-04T18:22:34.728Z,25.57
2017-08-04T18:25:02.345Z,17.20
2017-08-04T18:27:30.021Z,17.63
2017-08-04T18:29:57.629Z,10.67
2017-08-04T18:32:25.222Z,14.23
2017-08-04T18:34:52.893Z,13.80
2017-08-04T18:37:20.485Z,9.50
2017-08-04T18:39:48.076Z,9.60
2017-08-04T18:42:15.802Z,10.33
2017-08-04T18:44:43.547Z,8.23
2017-08-04T18:47:11.155Z,10.40
2017-08-04T18:49:38.806Z,11.00
2017-08-04T18:52:06.415Z,9.80
2017-08-04T18:54:34.031Z,10.20
2017-08-04T18:57:01.719Z,12.73
2017-08-04T18:59:29.345Z,11.30
2017-08-04T19:01:56.940Z,9.47
2017-08-04T19:04:24.654Z,11.70
2017-08-04T19:06:52.262Z,10.17
2017-08-04T19:09:19.889Z,10.00
2017-08-04T19:11:47.607Z,9.77
2017-08-04T19:14:15.221Z,10.20
2017-08-04T19:16:42.829Z,10.23
2017-08-04T19:19:10.487Z,11.03
2017-08-04T19:21:38.104Z,10.30
2017-08-04T19:24:05.864Z,24.40
2017-08-04T19:26:33.622Z,14.33
2017-08-04T19:29:01.238Z,12.33
2017-08-04T19:31:29.188Z,11.53
2017-08-04T19:33:58.613Z,10.43
2017-08-04T19:36:27.702Z,11.67
2017-08-04T19:38:56.670Z,10.60
2017-08-04T19:41:24.887Z,10.90
2017-08-04T19:43:53.225Z,11.47
2017-08-04T19:46:21.883Z,12.00
2017-08-04T19:48:50.480Z,12.67
2017-08-04T19:51:18.168Z,10.17
2017-08-04T19:53:46.723Z,10.93
2017-08-04T19:56:15.247Z,11.67
2017-08-04T19:58:42.994Z,12.00
2017-08-04T20:01:11.469Z,10.40
2017-08-04T20:03:39.210Z,11.27
2017-08-04T20:06:07.565Z,10.90
2017-08-04T20:08:36.035Z,11.00
2017-08-04T20:11:04.939Z,10.07
2017-08-04T20:13:33.763Z,11.20
2017-08-04T20:16:01.457Z,12.07
2017-08-04T20:18:29.100Z,9.30
2017-08-04T20:20:56.724Z,12.23
2017-08-04T20:23:24.312Z,27.03
2017-08-04T20:25:52.441Z,19.00
2017-08-04T20:28:20.026Z,12.57
2017-08-04T20:30:47.633Z,11.87
2017-08-04T20:33:15.284Z,12.30
2017-08-04T20:35:42.912Z,12.13
2017-08-04T20:38:10.510Z,12.27
2017-08-04T20:40:38.198Z,11.30
2017-08-04T20:43:05.814Z,12.00
2017-08-04T20:45:33.424Z,11.60
2017-08-04T20:48:01.093Z,10.50
2017-08-04T20:50:28.694Z,11.40
2017-08-04T20:52:56.614Z,10.80
2017-08-04T20:55:24.311Z,12.10
2017-08-04T20:57:51.924Z,11.73
2017-08-04T21:00:19.533Z,12.20
2017-08-04T21:02:47.193Z,11.50
2017-08-04T21:05:14.823Z,12.10
2017-08-04T21:07:42.432Z,12.50
2017-08-04T21:10:10.102Z,13.47
2017-08-04T21:12:37.710Z,13.70
2017-08-04T21:15:05.698Z,13.13
2017-08-04T21:17:33.774Z,11.53
2017-08-04T21:20:01.440Z,13.27
2017-08-04T21:22:29.165Z,12.00
2017-08-04T21:24:56.963Z,13.30
2017-08-04T21:27:24.826Z,12.43
2017-08-04T21:29:52.928Z,12.50
2017-08-04T21:32:20.570Z,12.00
2017-08-04T21:34:48.228Z,15.50
2017-08-04T21:37:16.127Z,12.13
2017-08-04T21:39:43.964Z,11.37
2017-08-04T21:42:11.626Z,12.37
2017-08-04T21:44:39.285Z,11.47
2017-08-04T21:47:06.957Z,12.20
2017-08-04T21:49:34.561Z,12.37
2017-08-04T21:52:02.283Z,13.03
2017-08-04T21:54:29.937Z,11.20
2017-08-04T21:56:57.600Z,13.50
2017-08-04T21:59:25.470Z,11.20
2017-08-04T22:01:53.315Z,13.30
2017-08-04T22:04:21.180Z,12.20
2017-08-04T22:06:48.864Z,11.97
2017-08-04T22:09:16.513Z,12.40
2017-08-04T22:11:44.114Z,13.23
2017-08-04T22:14:11.806Z,12.43
2017-08-04T22:16:39.921Z,13.50
2017-08-04T22:19:07.804Z,13.53
2017-08-04T22:21:35.865Z,12.70
2017-08-04T22:24:03.836Z,12.63
2017-08-04T22:26:31.453Z,12.80
2017-08-04T22:28:59.117Z,13.03
2017-08-04T22:31:26.968Z,13.10
2017-08-04T22:33:54.883Z,12.00
2017-08-04T22:36:22.856Z,14.77
2017-08-04T22:38:50.885Z,15.20
2017-08-04T22:41:18.570Z,14.07
2017-08-04T22:43:46.232Z,13.90
2017-08-04T22:46:13.855Z,13.20
2017-08-04T22:48:41.468Z,12.90
2017-08-04T22:51:09.381Z,11.83
2017-08-04T22:53:37.011Z,13.77
2017-08-04T22:56:04.670Z,12.30
2017-08-04T22:58:32.353Z,13.27
2017-08-04T23:00:59.970Z,12.83
2017-08-04T23:03:27.818Z,12.37
2017-08-04T23:05:55.806Z,12.40
2017-08-04T23:08:23.552Z,10.63
2017-08-04T23:10:51.465Z,11.80
2017-08-04T23:13:19.281Z,12.73
2017-08-04T23:15:47.034Z,12.90
2017-08-04T23:18:14.661Z,12.70
2017-08-04T23:20:42.395Z,12.80
2017-08-04T23:23:10.124Z,13.63
2017-08-04T23:25:37.733Z,14.20
2017-08-04T23:28:05.417Z,12.97
2017-08-04T23:30:33.006Z,12.37
2017-08-04T23:33:00.605Z,12.27
2017-08-04T23:35:28.284Z,12.50
2017-08-04T23:37:55.905Z,13.47
2017-08-04T23:40:23.579Z,14.20
2017-08-04T23:42:51.245Z,13.47
2017-08-04T23:45:18.857Z,13.60
2017-08-04T23:47:46.483Z,14.13
2017-08-04T23:50:14.162Z,13.70
2017-08-04T23:52:41.773Z,11.57
2017-08-04T23:55:09.383Z,14.37
2017-08-04T23:57:37.046Z,14.30
